Terminal Aerodrome Forecast
Issued by NWS Mt. Holly, NJ

Home | Current Version | Previous Version | Text Only | Print | Product List | Glossary On
Versions: 1 2 3 4 5 6 7 8 9 10 11 12 13 14 15 16 17 18 19 20 21 22 23 24
337
FTUS41 KPHI 170531
TAFTTN
TAF
KTTN 170531Z 1706/1806 25004KT P6SM OVC030
     FM170800 VRB03KT P6SM VCSH OVC025
     FM171400 13003KT P6SM -RA OVC020
     FM171700 13004KT 5SM -RA BR OVC009
     FM172300 VRB03KT 2SM -DZ BR OVC005=

USA.gov is the U.S. government's official web portal to all federal, state and local government web resources and services.